Terminal Aerodrome Forecast
Issued by NWS

Home | Current Version | Previous Version | Text Only | Print | Product List | Glossary On
Versions: 1 2 3 4 5 6 7 8 9 10 11 12 13 14 15 16
000
FTUS46 KSEW 090642 AAA
TAFHQM
TAF AMD
KHQM 090642Z 0907/1006 06018G28KT 4SM -FZRA BR FEW009 OVC020
     FM091100 10015G25KT 5SM -RA BR BKN020 OVC035
     FM091500 15013G20KT 5SM -RA BR BKN025 OVC040
     FM092000 19013G23KT 5SM -SHRA BR SCT007 BKN015 OVC030
      TEMPO 0922/1002 2SM RA BR BKN007 OVC015
     FM100300 21013KT 6SM -SHRA BR BKN022 OVC040=

USA.gov is the U.S. government's official web portal to all federal, state and local government web resources and services.